sensor_id;sensor_type;location;lat;lon;timestamp;temperature;humidity
18934;DHT22;9599;53.706;10.384;2024-03-06T00:01:48;4.60;99.90
18934;DHT22;9599;53.706;10.384;2024-03-06T00:04:16;4.60;99.90
18934;DHT22;9599;53.706;10.384;2024-03-06T00:06:47;4.60;99.90
18934;DHT22;9599;53.706;10.384;2024-03-06T00:09:18;4.60;99.90
18934;DHT22;9599;53.706;10.384;2024-03-06T00:11:46;4.60;99.90
18934;DHT22;9599;53.706;10.384;2024-03-06T00:14:14;4.60;99.90
18934;DHT22;9599;53.706;10.384;2024-03-06T00:16:43;4.50;99.90
18934;DHT22;9599;53.706;10.384;2024-03-06T00:19:11;4.50;99.90
18934;DHT22;9599;53.706;10.384;2024-03-06T00:21:40;4.50;99.90
18934;DHT22;9599;53.706;10.384;2024-03-06T00:24:11;4.50;99.90
18934;DHT22;9599;53.706;10.384;2024-03-06T00:26:40;4.50;99.90
18934;DHT22;9599;53.706;10.384;2024-03-06T00:29:09;4.40;99.90
18934;DHT22;9599;53.706;10.384;2024-03-06T00:31:41;4.40;99.90
18934;DHT22;9599;53.706;10.384;2024-03-06T00:34:10;4.40;99.90
18934;DHT22;9599;53.706;10.384;2024-03-06T00:36:43;4.30;99.90
18934;DHT22;9599;53.706;10.384;2024-03-06T00:39:13;4.30;99.90
18934;DHT22;9599;53.706;10.384;2024-03-06T00:41:43;4.30;99.90
18934;DHT22;9599;53.706;10.384;2024-03-06T00:44:11;4.30;99.90
18934;DHT22;9599;53.706;10.384;2024-03-06T00:46:39;4.20;99.90
18934;DHT22;9599;53.706;10.384;2024-03-06T00:49:08;4.20;99.90
18934;DHT22;9599;53.706;10.384;2024-03-06T00:51:36;4.30;99.90
18934;DHT22;9599;53.706;10.384;2024-03-06T00:54:16;4.30;99.90
18934;DHT22;9599;53.706;10.384;2024-03-06T00:56:44;4.30;99.90
18934;DHT22;9599;53.706;10.384;2024-03-06T00:59:12;4.30;99.90
18934;DHT22;9599;53.706;10.384;2024-03-06T01:01:40;4.40;99.90
18934;DHT22;9599;53.706;10.384;2024-03-06T01:04:09;4.40;99.90
18934;DHT22;9599;53.706;10.384;2024-03-06T01:06:37;4.40;99.90
18934;DHT22;9599;53.706;10.384;2024-03-06T01:09:05;4.30;99.90
18934;DHT22;9599;53.706;10.384;2024-03-06T01:11:35;4.30;99.90
18934;DHT22;9599;53.706;10.384;2024-03-06T01:14:03;4.40;99.90
18934;DHT22;9599;53.706;10.384;2024-03-06T01:16:31;4.40;99.90
18934;DHT22;9599;53.706;10.384;2024-03-06T01:18:59;4.40;99.90
18934;DHT22;9599;53.706;10.384;2024-03-06T01:21:27;4.30;99.90
18934;DHT22;9599;53.706;10.384;2024-03-06T01:23:56;4.40;99.90
18934;DHT22;9599;53.706;10.384;2024-03-06T01:26:24;4.30;99.90
18934;DHT22;9599;53.706;10.384;2024-03-06T01:28:54;4.30;99.90
18934;DHT22;9599;53.706;10.384;2024-03-06T01:31:22;4.40;99.90
18934;DHT22;9599;53.706;10.384;2024-03-06T01:33:51;4.40;99.90
18934;DHT22;9599;53.706;10.384;2024-03-06T01:36:19;4.40;99.90
18934;DHT22;9599;53.706;10.384;2024-03-06T01:38:50;4.40;99.90
18934;DHT22;9599;53.706;10.384;2024-03-06T01:41:18;4.40;99.90
18934;DHT22;9599;53.706;10.384;2024-03-06T01:43:46;4.40;99.90
18934;DHT22;9599;53.706;10.384;2024-03-06T01:46:16;4.40;99.90
18934;DHT22;9599;53.706;10.384;2024-03-06T01:48:44;4.40;99.90
18934;DHT22;9599;53.706;10.384;2024-03-06T01:51:14;4.50;99.90
18934;DHT22;9599;53.706;10.384;2024-03-06T01:53:42;4.60;99.90
18934;DHT22;9599;53.706;10.384;2024-03-06T01:56:11;4.60;99.90
18934;DHT22;9599;53.706;10.384;2024-03-06T01:58:45;4.60;99.90
18934;DHT22;9599;53.706;10.384;2024-03-06T02:01:17;4.60;99.90
18934;DHT22;9599;53.706;10.384;2024-03-06T02:03:46;4.60;99.90
18934;DHT22;9599;53.706;10.384;2024-03-06T02:06:14;4.50;99.90
18934;DHT22;9599;53.706;10.384;2024-03-06T02:08:46;4.50;99.90
18934;DHT22;9599;53.706;10.384;2024-03-06T02:11:14;4.40;99.90
18934;DHT22;9599;53.706;10.384;2024-03-06T02:13:43;4.50;99.90
18934;DHT22;9599;53.706;10.384;2024-03-06T02:16:12;4.50;99.90
18934;DHT22;9599;53.706;10.384;2024-03-06T02:18:52;4.50;99.90
18934;DHT22;9599;53.706;10.384;2024-03-06T02:21:24;4.40;99.90
18934;DHT22;9599;53.706;10.384;2024-03-06T02:23:53;4.50;99.90
18934;DHT22;9599;53.706;10.384;2024-03-06T02:26:22;4.50;99.90
18934;DHT22;9599;53.706;10.384;2024-03-06T02:28:54;4.40;99.90
18934;DHT22;9599;53.706;10.384;2024-03-06T02:31:22;4.50;99.90
18934;DHT22;9599;53.706;10.384;2024-03-06T02:33:51;4.50;99.90
18934;DHT22;9599;53.706;10.384;2024-03-06T02:36:20;4.50;99.90
18934;DHT22;9599;53.706;10.384;2024-03-06T02:38:50;4.50;99.90
18934;DHT22;9599;53.706;10.384;2024-03-06T02:41:18;4.50;99.90
18934;DHT22;9599;53.706;10.384;2024-03-06T02:43:46;4.50;99.90
18934;DHT22;9599;53.706;10.384;2024-03-06T02:46:18;4.60;99.90
18934;DHT22;9599;53.706;10.384;2024-03-06T02:48:46;4.60;99.90
18934;DHT22;9599;53.706;10.384;2024-03-06T02:51:18;4.70;99.90
18934;DHT22;9599;53.706;10.384;2024-03-06T02:53:46;4.60;99.90
18934;DHT22;9599;53.706;10.384;2024-03-06T02:56:18;4.70;99.90
18934;DHT22;9599;53.706;10.384;2024-03-06T02:58:47;4.70;99.90
18934;DHT22;9599;53.706;10.384;2024-03-06T03:01:16;4.60;99.90
18934;DHT22;9599;53.706;10.384;2024-03-06T03:03:44;4.60;99.90
18934;DHT22;9599;53.706;10.384;2024-03-06T03:06:14;4.60;99.90
18934;DHT22;9599;53.706;10.384;2024-03-06T03:08:42;4.50;99.90
18934;DHT22;9599;53.706;10.384;2024-03-06T03:11:11;4.40;99.90
18934;DHT22;9599;53.706;10.384;2024-03-06T03:13:41;4.40;99.90
18934;DHT22;9599;53.706;10.384;2024-03-06T03:16:15;4.40;99.90
18934;DHT22;9599;53.706;10.384;2024-03-06T03:18:45;4.40;99.90
18934;DHT22;9599;53.706;10.384;2024-03-06T03:21:13;4.40;99.90
18934;DHT22;9599;53.706;10.384;2024-03-06T03:23:41;4.40;99.90
18934;DHT22;9599;53.706;10.384;2024-03-06T03:26:09;4.40;99.90
18934;DHT22;9599;53.706;10.384;2024-03-06T03:28:38;4.50;99.90
18934;DHT22;9599;53.706;10.384;2024-03-06T03:31:09;4.50;99.90
18934;DHT22;9599;53.706;10.384;2024-03-06T03:33:39;4.50;99.90
18934;DHT22;9599;53.706;10.384;2024-03-06T03:36:08;4.50;99.90
18934;DHT22;9599;53.706;10.384;2024-03-06T03:38:37;4.50;99.90
18934;DHT22;9599;53.706;10.384;2024-03-06T03:41:08;4.40;99.90
18934;DHT22;9599;53.706;10.384;2024-03-06T03:43:37;4.40;99.90
18934;DHT22;9599;53.706;10.384;2024-03-06T03:46:05;4.40;99.90
18934;DHT22;9599;53.706;10.384;2024-03-06T03:48:36;4.50;99.90
18934;DHT22;9599;53.706;10.384;2024-03-06T03:51:05;4.50;99.90
18934;DHT22;9599;53.706;10.384;2024-03-06T03:53:34;4.40;99.90
18934;DHT22;9599;53.706;10.384;2024-03-06T03:56:02;4.40;99.90
18934;DHT22;9599;53.706;10.384;2024-03-06T03:58:34;4.40;99.90
18934;DHT22;9599;53.706;10.384;2024-03-06T04:01:04;4.50;99.90
18934;DHT22;9599;53.706;10.384;2024-03-06T04:03:32;4.30;99.90
18934;DHT22;9599;53.706;10.384;2024-03-06T04:06:02;4.30;99.90
18934;DHT22;9599;53.706;10.384;2024-03-06T04:08:30;4.30;99.90
18934;DHT22;9599;53.706;10.384;2024-03-06T04:10:59;4.40;99.90
18934;DHT22;9599;53.706;10.384;2024-03-06T04:13:27;4.40;99.90
18934;DHT22;9599;53.706;10.384;2024-03-06T04:15:55;4.40;99.90
18934;DHT22;9599;53.706;10.384;2024-03-06T04:18:23;4.40;99.90
18934;DHT22;9599;53.706;10.384;2024-03-06T04:20:51;4.40;99.90
18934;DHT22;9599;53.706;10.384;2024-03-06T04:23:20;4.40;99.90
18934;DHT22;9599;53.706;10.384;2024-03-06T04:25:49;4.30;99.90
18934;DHT22;9599;53.706;10.384;2024-03-06T04:28:17;4.30;99.90
18934;DHT22;9599;53.706;10.384;2024-03-06T04:30:46;4.20;99.90
18934;DHT22;9599;53.706;10.384;2024-03-06T04:33:14;4.20;99.90
18934;DHT22;9599;53.706;10.384;2024-03-06T04:35:42;4.30;99.90
18934;DHT22;9599;53.706;10.384;2024-03-06T04:38:10;4.30;99.90
18934;DHT22;9599;53.706;10.384;2024-03-06T04:40:40;4.40;99.90
18934;DHT22;9599;53.706;10.384;2024-03-06T04:43:08;4.30;99.90
18934;DHT22;9599;53.706;10.384;2024-03-06T04:45:36;4.30;99.90
18934;DHT22;9599;53.706;10.384;2024-03-06T04:48:05;4.30;99.90
18934;DHT22;9599;53.706;10.384;2024-03-06T04:50:34;4.40;99.90
18934;DHT22;9599;53.706;10.384;2024-03-06T04:53:02;4.30;99.90
18934;DHT22;9599;53.706;10.384;2024-03-06T04:55:30;4.40;99.90
18934;DHT22;9599;53.706;10.384;2024-03-06T04:57:59;4.40;99.90
18934;DHT22;9599;53.706;10.384;2024-03-06T05:00:27;4.40;99.90
18934;DHT22;9599;53.706;10.384;2024-03-06T05:02:56;4.50;99.90
18934;DHT22;9599;53.706;10.384;2024-03-06T05:05:42;4.40;99.90
18934;DHT22;9599;53.706;10.384;2024-03-06T05:08:27;4.30;99.90
18934;DHT22;9599;53.706;10.384;2024-03-06T05:11:14;4.30;99.90
18934;DHT22;9599;53.706;10.384;2024-03-06T05:14:00;4.20;99.90
18934;DHT22;9599;53.706;10.384;2024-03-06T05:16:47;4.20;99.90
18934;DHT22;9599;53.706;10.384;2024-03-06T05:19:33;4.20;99.90
18934;DHT22;9599;53.706;10.384;2024-03-06T05:22:19;4.20;99.90
18934;DHT22;9599;53.706;10.384;2024-03-06T05:25:06;4.20;99.90
18934;DHT22;9599;53.706;10.384;2024-03-06T05:27:52;4.20;99.90
18934;DHT22;9599;53.706;10.384;2024-03-06T05:30:38;4.20;99.90
18934;DHT22;9599;53.706;10.384;2024-03-06T05:33:24;4.20;99.90
18934;DHT22;9599;53.706;10.384;2024-03-06T05:36:11;4.20;99.90
18934;DHT22;9599;53.706;10.384;2024-03-06T05:38:58;4.20;99.90
18934;DHT22;9599;53.706;10.384;2024-03-06T05:41:44;4.30;99.90
18934;DHT22;9599;53.706;10.384;2024-03-06T05:44:30;4.20;99.90
18934;DHT22;9599;53.706;10.384;2024-03-06T05:47:17;4.20;99.90
18934;DHT22;9599;53.706;10.384;2024-03-06T05:50:04;4.20;99.90
18934;DHT22;9599;53.706;10.384;2024-03-06T05:52:49;4.10;99.90
18934;DHT22;9599;53.706;10.384;2024-03-06T05:55:35;4.20;99.90
18934;DHT22;9599;53.706;10.384;2024-03-06T05:58:21;4.20;99.90
18934;DHT22;9599;53.706;10.384;2024-03-06T06:00:49;4.20;99.90
18934;DHT22;9599;53.706;10.384;2024-03-06T06:03:18;4.20;99.90
18934;DHT22;9599;53.706;10.384;2024-03-06T06:05:46;4.20;99.90
18934;DHT22;9599;53.706;10.384;2024-03-06T06:08:14;4.20;99.90
18934;DHT22;9599;53.706;10.384;2024-03-06T06:10:42;4.30;99.90
18934;DHT22;9599;53.706;10.384;2024-03-06T06:13:11;4.30;99.90
18934;DHT22;9599;53.706;10.384;2024-03-06T06:15:39;4.20;99.90
18934;DHT22;9599;53.706;10.384;2024-03-06T06:18:07;4.20;99.90
18934;DHT22;9599;53.706;10.384;2024-03-06T06:20:36;4.30;99.90
18934;DHT22;9599;53.706;10.384;2024-03-06T06:23:05;4.30;99.90
18934;DHT22;9599;53.706;10.384;2024-03-06T06:25:33;4.30;99.90
18934;DHT22;9599;53.706;10.384;2024-03-06T06:28:01;4.30;99.90
18934;DHT22;9599;53.706;10.384;2024-03-06T06:30:30;4.30;99.90
18934;DHT22;9599;53.706;10.384;2024-03-06T06:32:58;4.40;99.90
18934;DHT22;9599;53.706;10.384;2024-03-06T06:35:27;4.40;99.90
18934;DHT22;9599;53.706;10.384;2024-03-06T06:37:56;4.50;99.90
18934;DHT22;9599;53.706;10.384;2024-03-06T06:40:24;4.50;99.90
18934;DHT22;9599;53.706;10.384;2024-03-06T06:42:52;4.50;99.90
18934;DHT22;9599;53.706;10.384;2024-03-06T06:45:21;4.50;99.90
18934;DHT22;9599;53.706;10.384;2024-03-06T06:47:51;4.60;99.90
18934;DHT22;9599;53.706;10.384;2024-03-06T06:50:20;4.60;99.90
18934;DHT22;9599;53.706;10.384;2024-03-06T06:52:52;4.70;99.90
18934;DHT22;9599;53.706;10.384;2024-03-06T06:55:22;4.70;99.90
18934;DHT22;9599;53.706;10.384;2024-03-06T06:57:51;4.70;99.90
18934;DHT22;9599;53.706;10.384;2024-03-06T07:00:19;4.70;99.90
18934;DHT22;9599;53.706;10.384;2024-03-06T07:02:49;4.70;99.90
18934;DHT22;9599;53.706;10.384;2024-03-06T07:05:18;4.80;99.90
18934;DHT22;9599;53.706;10.384;2024-03-06T07:07:46;4.80;99.90
18934;DHT22;9599;53.706;10.384;2024-03-06T07:10:19;4.90;99.90
18934;DHT22;9599;53.706;10.384;2024-03-06T07:12:51;4.90;99.90
18934;DHT22;9599;53.706;10.384;2024-03-06T07:15:20;4.90;99.90
18934;DHT22;9599;53.706;10.384;2024-03-06T07:17:48;4.90;99.90
18934;DHT22;9599;53.706;10.384;2024-03-06T07:20:17;5.00;99.90
18934;DHT22;9599;53.706;10.384;2024-03-06T07:22:47;4.90;99.90
18934;DHT22;9599;53.706;10.384;2024-03-06T07:25:18;4.90;99.90
18934;DHT22;9599;53.706;10.384;2024-03-06T07:27:50;4.90;99.90
18934;DHT22;9599;53.706;10.384;2024-03-06T07:30:20;4.90;99.90
18934;DHT22;9599;53.706;10.384;2024-03-06T07:32:50;5.00;99.90
18934;DHT22;9599;53.706;10.384;2024-03-06T07:35:20;5.00;99.90
18934;DHT22;9599;53.706;10.384;2024-03-06T07:37:50;5.00;99.90
18934;DHT22;9599;53.706;10.384;2024-03-06T07:40:20;5.00;99.90
18934;DHT22;9599;53.706;10.384;2024-03-06T07:42:50;5.10;99.90
18934;DHT22;9599;53.706;10.384;2024-03-06T07:45:20;5.30;99.90
18934;DHT22;9599;53.706;10.384;2024-03-06T07:47:49;5.50;99.90
18934;DHT22;9599;53.706;10.384;2024-03-06T07:50:18;5.70;99.90
18934;DHT22;9599;53.706;10.384;2024-03-06T07:52:50;5.80;99.90
18934;DHT22;9599;53.706;10.384;2024-03-06T07:55:20;5.90;99.90
18934;DHT22;9599;53.706;10.384;2024-03-06T07:57:52;6.00;99.90
18934;DHT22;9599;53.706;10.384;2024-03-06T08:00:22;5.90;99.90
18934;DHT22;9599;53.706;10.384;2024-03-06T08:02:52;5.90;99.90
18934;DHT22;9599;53.706;10.384;2024-03-06T08:05:22;6.20;99.90
18934;DHT22;9599;53.706;10.384;2024-03-06T08:07:52;6.40;99.90
18934;DHT22;9599;53.706;10.384;2024-03-06T08:10:22;6.70;99.90
18934;DHT22;9599;53.706;10.384;2024-03-06T08:12:52;7.00;99.90
18934;DHT22;9599;53.706;10.384;2024-03-06T08:15:20;7.10;99.90
18934;DHT22;9599;53.706;10.384;2024-03-06T08:17:49;7.20;99.90
18934;DHT22;9599;53.706;10.384;2024-03-06T08:20:19;6.90;99.90
18934;DHT22;9599;53.706;10.384;2024-03-06T08:22:47;6.60;99.90
18934;DHT22;9599;53.706;10.384;2024-03-06T08:25:16;6.50;99.90
18934;DHT22;9599;53.706;10.384;2024-03-06T08:27:44;6.60;99.90
18934;DHT22;9599;53.706;10.384;2024-03-06T08:30:14;6.80;99.90
18934;DHT22;9599;53.706;10.384;2024-03-06T08:32:42;7.10;99.90
18934;DHT22;9599;53.706;10.384;2024-03-06T08:35:12;7.30;99.90
18934;DHT22;9599;53.706;10.384;2024-03-06T08:37:46;7.30;99.90
18934;DHT22;9599;53.706;10.384;2024-03-06T08:40:14;7.10;99.90
18934;DHT22;9599;53.706;10.384;2024-03-06T08:42:42;6.80;99.90
18934;DHT22;9599;53.706;10.384;2024-03-06T08:45:11;6.50;99.90
18934;DHT22;9599;53.706;10.384;2024-03-06T08:47:41;6.80;99.90
18934;DHT22;9599;53.706;10.384;2024-03-06T08:50:11;7.00;99.90
18934;DHT22;9599;53.706;10.384;2024-03-06T08:52:39;7.10;99.90
18934;DHT22;9599;53.706;10.384;2024-03-06T08:55:10;6.90;99.90
18934;DHT22;9599;53.706;10.384;2024-03-06T08:57:39;6.70;99.90
18934;DHT22;9599;53.706;10.384;2024-03-06T09:00:09;6.50;99.90
18934;DHT22;9599;53.706;10.384;2024-03-06T09:02:40;6.60;99.90
18934;DHT22;9599;53.706;10.384;2024-03-06T09:05:10;6.70;99.90
18934;DHT22;9599;53.706;10.384;2024-03-06T09:07:40;7.10;99.90
18934;DHT22;9599;53.706;10.384;2024-03-06T09:10:09;7.50;99.90
18934;DHT22;9599;53.706;10.384;2024-03-06T09:12:37;7.60;99.90
18934;DHT22;9599;53.706;10.384;2024-03-06T09:15:06;7.30;99.90
18934;DHT22;9599;53.706;10.384;2024-03-06T09:17:36;7.30;99.90
18934;DHT22;9599;53.706;10.384;2024-03-06T09:20:07;7.50;99.90
18934;DHT22;9599;53.706;10.384;2024-03-06T09:22:39;7.30;99.90
18934;DHT22;9599;53.706;10.384;2024-03-06T09:25:08;7.30;99.90
18934;DHT22;9599;53.706;10.384;2024-03-06T09:27:37;7.30;99.90
18934;DHT22;9599;53.706;10.384;2024-03-06T09:30:06;7.20;99.90
18934;DHT22;9599;53.706;10.384;2024-03-06T09:32:35;7.10;99.90
18934;DHT22;9599;53.706;10.384;2024-03-06T09:35:05;7.20;99.90
18934;DHT22;9599;53.706;10.384;2024-03-06T09:37:34;6.90;99.90
18934;DHT22;9599;53.706;10.384;2024-03-06T09:40:02;7.10;99.90
18934;DHT22;9599;53.706;10.384;2024-03-06T09:42:30;7.10;99.90
18934;DHT22;9599;53.706;10.384;2024-03-06T09:44:59;7.10;99.90
18934;DHT22;9599;53.706;10.384;2024-03-06T09:47:31;7.10;99.90
18934;DHT22;9599;53.706;10.384;2024-03-06T09:50:00;7.00;99.90
18934;DHT22;9599;53.706;10.384;2024-03-06T09:52:34;7.00;99.90
18934;DHT22;9599;53.706;10.384;2024-03-06T09:55:04;7.20;99.90
18934;DHT22;9599;53.706;10.384;2024-03-06T09:57:36;7.20;99.90
18934;DHT22;9599;53.706;10.384;2024-03-06T10:00:06;7.30;99.90
18934;DHT22;9599;53.706;10.384;2024-03-06T10:02:40;7.40;99.90
18934;DHT22;9599;53.706;10.384;2024-03-06T10:05:20;7.50;99.90
18934;DHT22;9599;53.706;10.384;2024-03-06T10:07:51;7.40;99.90
18934;DHT22;9599;53.706;10.384;2024-03-06T10:10:20;7.60;99.90
18934;DHT22;9599;53.706;10.384;2024-03-06T10:12:49;7.40;99.90
18934;DHT22;9599;53.706;10.384;2024-03-06T10:15:17;7.30;99.90
18934;DHT22;9599;53.706;10.384;2024-03-06T10:17:45;7.30;99.90
18934;DHT22;9599;53.706;10.384;2024-03-06T10:20:21;7.50;99.90
18934;DHT22;9599;53.706;10.384;2024-03-06T10:22:52;7.40;99.90
18934;DHT22;9599;53.706;10.384;2024-03-06T10:25:25;7.20;99.90
18934;DHT22;9599;53.706;10.384;2024-03-06T10:28:05;7.00;99.90
18934;DHT22;9599;53.706;10.384;2024-03-06T10:30:35;6.90;99.90
18934;DHT22;9599;53.706;10.384;2024-03-06T10:33:04;6.80;99.90
18934;DHT22;9599;53.706;10.384;2024-03-06T10:35:33;6.90;99.90
18934;DHT22;9599;53.706;10.384;2024-03-06T10:38:05;7.00;99.90
18934;DHT22;9599;53.706;10.384;2024-03-06T10:40:35;7.20;99.90
18934;DHT22;9599;53.706;10.384;2024-03-06T10:43:05;7.20;99.90
18934;DHT22;9599;53.706;10.384;2024-03-06T10:45:40;7.10;99.90
18934;DHT22;9599;53.706;10.384;2024-03-06T10:48:09;7.00;99.90
18934;DHT22;9599;53.706;10.384;2024-03-06T10:50:41;7.10;99.90
18934;DHT22;9599;53.706;10.384;2024-03-06T10:53:13;7.30;99.90
18934;DHT22;9599;53.706;10.384;2024-03-06T10:55:49;7.40;99.90
18934;DHT22;9599;53.706;10.384;2024-03-06T10:58:18;7.60;99.90
18934;DHT22;9599;53.706;10.384;2024-03-06T11:00:47;7.70;99.90
18934;DHT22;9599;53.706;10.384;2024-03-06T11:03:16;7.50;99.90
18934;DHT22;9599;53.706;10.384;2024-03-06T11:05:45;7.30;99.90
18934;DHT22;9599;53.706;10.384;2024-03-06T11:08:16;7.30;99.90
18934;DHT22;9599;53.706;10.384;2024-03-06T11:10:45;7.40;99.90
18934;DHT22;9599;53.706;10.384;2024-03-06T11:13:23;7.60;99.90
18934;DHT22;9599;53.706;10.384;2024-03-06T11:15:53;7.80;99.90
18934;DHT22;9599;53.706;10.384;2024-03-06T11:18:45;7.80;99.90
18934;DHT22;9599;53.706;10.384;2024-03-06T11:21:31;7.90;99.90
18934;DHT22;9599;53.706;10.384;2024-03-06T11:24:20;7.80;99.90
18934;DHT22;9599;53.706;10.384;2024-03-06T11:26:49;8.00;99.90
18934;DHT22;9599;53.706;10.384;2024-03-06T11:29:19;7.90;99.90
18934;DHT22;9599;53.706;10.384;2024-03-06T11:32:02;7.80;99.90
18934;DHT22;9599;53.706;10.384;2024-03-06T11:34:31;7.80;99.90
18934;DHT22;9599;53.706;10.384;2024-03-06T11:36:59;7.80;99.90
18934;DHT22;9599;53.706;10.384;2024-03-06T11:39:32;7.70;99.90
18934;DHT22;9599;53.706;10.384;2024-03-06T11:42:03;7.90;99.90
18934;DHT22;9599;53.706;10.384;2024-03-06T11:44:35;7.80;99.90
18934;DHT22;9599;53.706;10.384;2024-03-06T11:47:05;8.00;99.90
18934;DHT22;9599;53.706;10.384;2024-03-06T11:49:35;8.00;99.90
18934;DHT22;9599;53.706;10.384;2024-03-06T11:52:06;8.20;99.90
18934;DHT22;9599;53.706;10.384;2024-03-06T11:54:36;8.50;99.90
18934;DHT22;9599;53.706;10.384;2024-03-06T11:57:06;8.50;99.90
18934;DHT22;9599;53.706;10.384;2024-03-06T11:59:35;8.60;99.90
18934;DHT22;9599;53.706;10.384;2024-03-06T12:02:06;8.60;99.90
18934;DHT22;9599;53.706;10.384;2024-03-06T12:04:37;8.60;99.90
18934;DHT22;9599;53.706;10.384;2024-03-06T12:07:06;8.70;99.90
18934;DHT22;9599;53.706;10.384;2024-03-06T12:09:38;8.30;99.90
18934;DHT22;9599;53.706;10.384;2024-03-06T12:12:10;7.90;99.90
18934;DHT22;9599;53.706;10.384;2024-03-06T12:14:39;7.80;99.90
18934;DHT22;9599;53.706;10.384;2024-03-06T12:17:12;7.80;99.90
18934;DHT22;9599;53.706;10.384;2024-03-06T12:19:42;8.00;99.90
18934;DHT22;9599;53.706;10.384;2024-03-06T12:22:11;8.00;99.90
18934;DHT22;9599;53.706;10.384;2024-03-06T12:24:40;8.20;99.90
18934;DHT22;9599;53.706;10.384;2024-03-06T12:27:08;8.40;99.90
18934;DHT22;9599;53.706;10.384;2024-03-06T12:29:37;8.30;99.90
18934;DHT22;9599;53.706;10.384;2024-03-06T12:32:16;8.50;99.90
18934;DHT22;9599;53.706;10.384;2024-03-06T12:34:56;8.50;99.90
18934;DHT22;9599;53.706;10.384;2024-03-06T12:37:29;8.50;99.90
18934;DHT22;9599;53.706;10.384;2024-03-06T12:40:04;8.40;99.90
18934;DHT22;9599;53.706;10.384;2024-03-06T12:42:32;8.40;99.90
18934;DHT22;9599;53.706;10.384;2024-03-06T12:45:00;8.60;99.90
18934;DHT22;9599;53.706;10.384;2024-03-06T12:47:29;8.60;99.90
18934;DHT22;9599;53.706;10.384;2024-03-06T12:49:58;8.40;99.90
18934;DHT22;9599;53.706;10.384;2024-03-06T12:52:27;8.40;99.90
18934;DHT22;9599;53.706;10.384;2024-03-06T12:54:55;8.50;99.90
18934;DHT22;9599;53.706;10.384;2024-03-06T12:57:24;8.50;99.90
18934;DHT22;9599;53.706;10.384;2024-03-06T12:59:54;8.60;99.90
18934;DHT22;9599;53.706;10.384;2024-03-06T13:02:22;8.60;99.90
18934;DHT22;9599;53.706;10.384;2024-03-06T13:04:51;8.60;99.90
18934;DHT22;9599;53.706;10.384;2024-03-06T13:07:19;8.60;99.90
18934;DHT22;9599;53.706;10.384;2024-03-06T13:09:47;8.60;99.90
18934;DHT22;9599;53.706;10.384;2024-03-06T13:12:15;8.70;99.90
18934;DHT22;9599;53.706;10.384;2024-03-06T13:14:45;8.60;99.90
18934;DHT22;9599;53.706;10.384;2024-03-06T13:17:13;8.70;99.90
18934;DHT22;9599;53.706;10.384;2024-03-06T13:19:41;8.30;99.90
18934;DHT22;9599;53.706;10.384;2024-03-06T13:22:09;8.20;99.90
18934;DHT22;9599;53.706;10.384;2024-03-06T13:24:37;8.10;99.90
18934;DHT22;9599;53.706;10.384;2024-03-06T13:27:11;8.10;99.90
18934;DHT22;9599;53.706;10.384;2024-03-06T13:29:39;8.30;99.90
18934;DHT22;9599;53.706;10.384;2024-03-06T13:32:09;8.40;99.90
18934;DHT22;9599;53.706;10.384;2024-03-06T13:34:37;8.40;99.90
18934;DHT22;9599;53.706;10.384;2024-03-06T13:37:06;8.20;99.90
18934;DHT22;9599;53.706;10.384;2024-03-06T13:39:37;8.20;99.90
18934;DHT22;9599;53.706;10.384;2024-03-06T13:42:06;8.10;99.90
18934;DHT22;9599;53.706;10.384;2024-03-06T13:44:35;8.10;99.90
18934;DHT22;9599;53.706;10.384;2024-03-06T13:47:03;8.20;99.90
18934;DHT22;9599;53.706;10.384;2024-03-06T13:49:39;8.20;99.90
18934;DHT22;9599;53.706;10.384;2024-03-06T13:52:09;8.10;99.90
18934;DHT22;9599;53.706;10.384;2024-03-06T13:54:43;8.20;99.90
18934;DHT22;9599;53.706;10.384;2024-03-06T13:57:11;8.10;99.90
18934;DHT22;9599;53.706;10.384;2024-03-06T13:59:39;8.30;99.90
18934;DHT22;9599;53.706;10.384;2024-03-06T14:02:07;8.30;99.90
18934;DHT22;9599;53.706;10.384;2024-03-06T14:04:38;8.00;99.90
18934;DHT22;9599;53.706;10.384;2024-03-06T14:07:06;8.00;99.90
18934;DHT22;9599;53.706;10.384;2024-03-06T14:09:34;8.00;99.90
18934;DHT22;9599;53.706;10.384;2024-03-06T14:12:02;8.00;99.90
18934;DHT22;9599;53.706;10.384;2024-03-06T14:14:31;8.10;99.90
18934;DHT22;9599;53.706;10.384;2024-03-06T14:16:59;8.20;99.90
18934;DHT22;9599;53.706;10.384;2024-03-06T14:19:28;8.30;99.90
18934;DHT22;9599;53.706;10.384;2024-03-06T14:21:58;8.10;99.90
18934;DHT22;9599;53.706;10.384;2024-03-06T14:24:30;7.90;99.90
18934;DHT22;9599;53.706;10.384;2024-03-06T14:26:58;7.90;99.90
18934;DHT22;9599;53.706;10.384;2024-03-06T14:29:26;7.90;99.90
18934;DHT22;9599;53.706;10.384;2024-03-06T14:31:55;7.80;99.90
18934;DHT22;9599;53.706;10.384;2024-03-06T14:34:24;7.50;99.90
18934;DHT22;9599;53.706;10.384;2024-03-06T14:36:52;7.40;99.90
18934;DHT22;9599;53.706;10.384;2024-03-06T14:39:22;7.30;99.90
18934;DHT22;9599;53.706;10.384;2024-03-06T14:41:52;7.30;99.90
18934;DHT22;9599;53.706;10.384;2024-03-06T14:44:20;7.40;99.90
18934;DHT22;9599;53.706;10.384;2024-03-06T14:46:48;7.30;99.90
18934;DHT22;9599;53.706;10.384;2024-03-06T14:49:16;7.20;99.90
18934;DHT22;9599;53.706;10.384;2024-03-06T14:51:44;7.20;99.90
18934;DHT22;9599;53.706;10.384;2024-03-06T14:54:12;7.10;99.90
18934;DHT22;9599;53.706;10.384;2024-03-06T14:56:42;7.00;99.90
18934;DHT22;9599;53.706;10.384;2024-03-06T14:59:10;7.10;99.90
18934;DHT22;9599;53.706;10.384;2024-03-06T15:01:38;7.20;99.90
18934;DHT22;9599;53.706;10.384;2024-03-06T15:04:06;7.00;99.90
18934;DHT22;9599;53.706;10.384;2024-03-06T15:06:34;7.00;99.90
18934;DHT22;9599;53.706;10.384;2024-03-06T15:09:02;7.00;99.90
18934;DHT22;9599;53.706;10.384;2024-03-06T15:11:31;6.90;99.90
18934;DHT22;9599;53.706;10.384;2024-03-06T15:14:01;6.90;99.90
18934;DHT22;9599;53.706;10.384;2024-03-06T15:16:30;7.00;99.90
18934;DHT22;9599;53.706;10.384;2024-03-06T15:18:58;6.90;99.90
18934;DHT22;9599;53.706;10.384;2024-03-06T15:21:26;7.00;99.90
18934;DHT22;9599;53.706;10.384;2024-03-06T15:23:54;7.00;99.90
18934;DHT22;9599;53.706;10.384;2024-03-06T15:26:22;7.10;99.90
18934;DHT22;9599;53.706;10.384;2024-03-06T15:28:50;7.20;99.90
18934;DHT22;9599;53.706;10.384;2024-03-06T15:31:21;7.10;99.90
18934;DHT22;9599;53.706;10.384;2024-03-06T15:33:49;7.00;99.90
18934;DHT22;9599;53.706;10.384;2024-03-06T15:36:18;6.90;99.90
18934;DHT22;9599;53.706;10.384;2024-03-06T15:38:46;6.90;99.90
18934;DHT22;9599;53.706;10.384;2024-03-06T15:41:14;6.90;99.90
18934;DHT22;9599;53.706;10.384;2024-03-06T15:43:44;6.90;99.90
18934;DHT22;9599;53.706;10.384;2024-03-06T15:46:13;6.70;99.90
18934;DHT22;9599;53.706;10.384;2024-03-06T15:48:42;6.70;99.90
18934;DHT22;9599;53.706;10.384;2024-03-06T15:51:11;6.60;99.90
18934;DHT22;9599;53.706;10.384;2024-03-06T15:53:40;6.50;99.90
18934;DHT22;9599;53.706;10.384;2024-03-06T15:56:08;6.30;99.90
18934;DHT22;9599;53.706;10.384;2024-03-06T15:58:37;6.20;99.90
18934;DHT22;9599;53.706;10.384;2024-03-06T16:01:05;6.40;99.90
18934;DHT22;9599;53.706;10.384;2024-03-06T16:03:33;6.50;99.90
18934;DHT22;9599;53.706;10.384;2024-03-06T16:06:03;6.50;99.90